Time;durP1;ratioP1;P1;durP2;ratioP2;P2;SDS_P1;SDS_P2;PMS_P1;PMS_P2;Temp;Humidity;BMP_temperature;BMP_pressure;BME280_temperature;BME280_humidity;BME280_pressure;Samples;Min_cycle;Max_cycle;Signal;HPM_P1;HPM_P2
2021/10/29 00:00:33;;;;;;;33.22;25.50;;;9.60;99.90;;;;;;5977518;24;20096;-39
2021/10/29 00:03:04;;;;;;;28.25;22.08;;;9.60;99.90;;;;;;5976171;24;20032;-38
2021/10/29 00:05:31;;;;;;;29.27;22.98;;;9.50;99.90;;;;;;5977825;24;20043;-40
2021/10/29 00:07:57;;;;;;;30.08;24.95;;;9.60;99.90;;;;;;5978580;24;20131;-40
2021/10/29 00:10:24;;;;;;;29.48;22.73;;;9.60;99.90;;;;;;5978250;24;20040;-39
2021/10/29 00:12:51;;;;;;;30.83;23.83;;;9.50;99.90;;;;;;5977899;24;20107;-39
2021/10/29 00:15:20;;;;;;;30.08;23.45;;;9.50;99.90;;;;;;5978054;24;20067;-39
2021/10/29 00:17:47;;;;;;;27.77;22.17;;;9.50;99.90;;;;;;5977776;24;20028;-40
2021/10/29 00:20:13;;;;;;;27.77;22.85;;;9.50;99.90;;;;;;5977354;24;20060;-40
2021/10/29 00:22:40;;;;;;;28.73;22.90;;;9.50;99.90;;;;;;5977064;24;20028;-39
2021/10/29 00:25:06;;;;;;;28.35;23.20;;;9.50;99.90;;;;;;5977818;24;20354;-40
2021/10/29 00:27:35;;;;;;;30.25;23.33;;;9.40;99.90;;;;;;5977810;24;20346;-40
2021/10/29 00:30:02;;;;;;;28.55;23.20;;;9.40;99.90;;;;;;5977637;24;20332;-40
2021/10/29 00:32:29;;;;;;;27.40;22.85;;;9.40;99.90;;;;;;5951796;24;20035;-40
2021/10/29 00:34:58;;;;;;;29.98;23.17;;;9.40;99.90;;;;;;5977083;24;20034;-39
2021/10/29 00:37:24;;;;;;;30.63;24.20;;;9.40;99.90;;;;;;5977169;24;20064;-39
2021/10/29 00:39:50;;;;;;;29.58;22.73;;;9.40;99.90;;;;;;5977080;24;20032;-40
2021/10/29 00:42:17;;;;;;;28.83;24.02;;;9.40;99.90;;;;;;5977314;24;20028;-40
2021/10/29 00:44:43;;;;;;;26.83;23.20;;;9.40;99.90;;;;;;5977194;24;20084;-40
2021/10/29 00:47:12;;;;;;;29.38;23.77;;;9.40;99.90;;;;;;5977598;24;20027;-40
2021/10/29 00:49:38;;;;;;;29.80;23.65;;;9.40;99.90;;;;;;5976955;24;20091;-39
2021/10/29 00:52:04;;;;;;;29.15;23.17;;;9.40;99.90;;;;;;5976898;24;20028;-40
2021/10/29 00:54:30;;;;;;;27.45;22.92;;;9.40;99.90;;;;;;5952618;24;20110;-40
2021/10/29 00:56:56;;;;;;;31.70;24.30;;;9.40;99.90;;;;;;5977134;24;20032;-40
2021/10/29 00:59:23;;;;;;;26.58;22.60;;;9.40;99.90;;;;;;5977310;24;20109;-40
2021/10/29 01:01:49;;;;;;;27.05;21.60;;;9.40;99.90;;;;;;5977613;24;20035;-40
2021/10/29 01:04:16;;;;;;;28.25;23.00;;;9.40;99.90;;;;;;5977114;24;20028;-40
2021/10/29 01:06:43;;;;;;;27.38;22.52;;;9.30;99.90;;;;;;5977142;24;20482;-40
2021/10/29 01:09:11;;;;;;;26.38;22.15;;;9.40;99.90;;;;;;5977092;24;20032;-39
2021/10/29 01:11:39;;;;;;;27.58;21.65;;;9.40;99.90;;;;;;5977512;24;20031;-39
2021/10/29 01:14:05;;;;;;;26.73;21.33;;;9.40;99.90;;;;;;5976917;24;20030;-40
2021/10/29 01:16:32;;;;;;;26.77;22.38;;;9.40;99.90;;;;;;5951031;24;20032;-39
2021/10/29 01:18:58;;;;;;;30.45;22.70;;;9.30;99.90;;;;;;5976804;24;20029;-39
2021/10/29 01:21:25;;;;;;;29.02;22.95;;;9.30;99.90;;;;;;5976665;24;20083;-40
2021/10/29 01:23:54;;;;;;;31.35;22.30;;;9.30;99.90;;;;;;5977339;24;20031;-40
2021/10/29 01:26:21;;;;;;;27.73;22.65;;;9.30;99.90;;;;;;5951912;24;20042;-39
2021/10/29 01:28:47;;;;;;;28.45;21.95;;;9.30;99.90;;;;;;5951247;24;20064;-39
2021/10/29 01:31:16;;;;;;;29.40;23.55;;;9.40;99.90;;;;;;5977015;24;20029;-40
2021/10/29 01:33:47;;;;;;;29.08;23.02;;;9.30;99.90;;;;;;5976154;24;20032;-39
2021/10/29 01:36:13;;;;;;;27.13;21.52;;;9.40;99.90;;;;;;5977516;24;20035;-39
2021/10/29 01:38:42;;;;;;;28.08;22.42;;;9.40;99.90;;;;;;5976784;24;20043;-40
2021/10/29 01:41:09;;;;;;;29.42;22.63;;;9.40;99.90;;;;;;5976460;24;20043;-39
2021/10/29 01:43:47;;;;;;;27.83;21.95;;;9.40;99.90;;;;;;5977310;24;20032;-41
2021/10/29 01:46:14;;;;;;;27.58;21.40;;;9.30;99.90;;;;;;5976682;24;20047;-40
2021/10/29 01:48:51;;;;;;;27.85;21.23;;;9.30;99.90;;;;;;5976763;24;20549;-39
2021/10/29 01:51:17;;;;;;;26.70;22.67;;;9.30;99.90;;;;;;5977265;24;20028;-40
2021/10/29 01:53:44;;;;;;;27.15;21.30;;;9.30;99.90;;;;;;5977450;24;20067;-39
2021/10/29 01:56:10;;;;;;;30.45;21.45;;;9.30;99.90;;;;;;5978393;24;20124;-39
2021/10/29 01:58:39;;;;;;;23.73;20.67;;;9.30;99.90;;;;;;5978539;24;20035;-40
2021/10/29 02:01:06;;;;;;;27.70;21.05;;;9.40;99.90;;;;;;5978297;24;20513;-39
2021/10/29 02:03:36;;;;;;;27.83;21.27;;;9.30;99.90;;;;;;5979358;24;20074;-39
2021/10/29 02:06:04;;;;;;;25.30;20.30;;;9.40;99.90;;;;;;5976463;24;20063;-39
2021/10/29 02:08:31;;;;;;;24.75;19.63;;;9.30;99.90;;;;;;5978204;24;20084;-39
2021/10/29 02:10:58;;;;;;;27.58;21.17;;;9.40;99.90;;;;;;5977866;24;20459;-39
2021/10/29 02:13:24;;;;;;;27.55;20.25;;;9.40;99.90;;;;;;5978821;24;20039;-40
2021/10/29 02:15:51;;;;;;;24.20;20.05;;;9.40;99.90;;;;;;5978877;24;20038;-39
2021/10/29 02:18:19;;;;;;;24.92;18.67;;;9.40;99.90;;;;;;5978972;24;20024;-39
2021/10/29 02:20:46;;;;;;;24.98;19.77;;;9.40;99.90;;;;;;5978854;24;20032;-40
2021/10/29 02:23:14;;;;;;;25.98;20.85;;;9.40;99.90;;;;;;5978856;24;20028;-39
2021/10/29 02:25:44;;;;;;;27.42;20.42;;;9.40;99.90;;;;;;5978263;24;20529;-39
2021/10/29 02:28:11;;;;;;;24.40;19.98;;;9.40;99.90;;;;;;5978607;24;20039;-39
2021/10/29 02:30:40;;;;;;;25.90;19.83;;;9.40;99.90;;;;;;5978311;24;20115;-40
2021/10/29 02:33:06;;;;;;;26.13;20.83;;;9.30;99.90;;;;;;5977969;24;20036;-40
2021/10/29 02:35:33;;;;;;;22.85;19.33;;;9.40;99.90;;;;;;5977269;24;20115;-39
2021/10/29 02:37:59;;;;;;;28.35;20.17;;;9.40;99.90;;;;;;5977699;24;20035;-40
2021/10/29 02:40:25;;;;;;;25.67;19.67;;;9.40;99.90;;;;;;5977803;24;20028;-39
2021/10/29 02:42:51;;;;;;;24.05;19.40;;;9.30;99.90;;;;;;5978211;24;20024;-39
2021/10/29 02:45:18;;;;;;;27.27;19.85;;;9.40;99.90;;;;;;5976888;24;20477;-39
2021/10/29 02:47:47;;;;;;;26.13;18.58;;;9.40;99.90;;;;;;5977763;24;20032;-40
2021/10/29 02:50:18;;;;;;;23.27;19.10;;;9.40;99.90;;;;;;5977391;24;20043;-40
2021/10/29 02:52:45;;;;;;;24.58;19.15;;;9.50;99.90;;;;;;5977540;24;20415;-40
2021/10/29 02:55:11;;;;;;;22.00;18.10;;;9.50;99.90;;;;;;5952954;24;20032;-40
2021/10/29 02:57:37;;;;;;;24.30;19.35;;;9.50;99.90;;;;;;5977729;24;20111;-39
2021/10/29 03:00:07;;;;;;;23.13;18.98;;;9.50;99.90;;;;;;5977486;24;20156;-39
2021/10/29 03:02:34;;;;;;;25.15;18.17;;;9.50;99.90;;;;;;5977223;24;20469;-39
2021/10/29 03:05:01;;;;;;;24.67;18.60;;;9.60;99.90;;;;;;5952652;24;20114;-39
2021/10/29 03:07:27;;;;;;;23.92;18.77;;;9.60;99.90;;;;;;5977838;24;20035;-39
2021/10/29 03:09:54;;;;;;;24.23;18.75;;;9.60;99.90;;;;;;5978793;24;20032;-39
2021/10/29 03:12:21;;;;;;;24.15;19.13;;;9.60;99.90;;;;;;5977982;24;20107;-40
2021/10/29 03:14:47;;;;;;;23.08;18.65;;;9.70;99.90;;;;;;5977463;24;20032;-39
2021/10/29 03:17:16;;;;;;;24.58;19.08;;;9.60;99.90;;;;;;5977153;24;20032;-39
2021/10/29 03:19:42;;;;;;;25.17;18.55;;;9.60;99.90;;;;;;5976450;24;20032;-39
2021/10/29 03:22:10;;;;;;;22.65;18.13;;;9.60;99.90;;;;;;5977303;24;20087;-40
2021/10/29 03:24:36;;;;;;;22.83;18.50;;;9.60;99.90;;;;;;5976898;24;20031;-39
2021/10/29 03:27:03;;;;;;;25.08;19.10;;;9.60;99.90;;;;;;5976844;24;20115;-40
2021/10/29 03:29:29;;;;;;;23.75;18.15;;;9.50;99.90;;;;;;5977520;24;20028;-39
2021/10/29 03:31:57;;;;;;;25.25;18.70;;;9.50;99.90;;;;;;5977522;24;20024;-39
2021/10/29 03:34:23;;;;;;;24.80;18.65;;;9.50;99.90;;;;;;5977828;24;20039;-39
2021/10/29 03:36:50;;;;;;;21.55;17.88;;;9.60;99.90;;;;;;5977073;24;20024;-40
2021/10/29 03:39:28;;;;;;;25.63;18.90;;;9.50;99.90;;;;;;5977822;24;20042;-39
2021/10/29 03:41:58;;;;;;;23.70;18.48;;;9.50;99.90;;;;;;5978122;24;20525;-39
2021/10/29 03:47:11;;;;;;;23.52;18.30;;;9.60;99.90;;;;;;5977379;24;20032;-39
2021/10/29 03:49:49;;;;;;;24.20;18.70;;;9.60;99.90;;;;;;5977904;24;20067;-39
2021/10/29 03:54:52;;;;;;;22.27;17.33;;;9.60;99.90;;;;;;5977752;24;20034;-39
2021/10/29 03:57:24;;;;;;;23.15;17.50;;;9.60;99.90;;;;;;5977419;24;20071;-39
2021/10/29 03:59:53;;;;;;;23.23;17.85;;;9.60;99.90;;;;;;5977125;24;20067;-39
2021/10/29 04:02:20;;;;;;;24.30;18.52;;;9.60;99.90;;;;;;5976577;24;20455;-39
2021/10/29 04:04:47;;;;;;;20.17;17.27;;;9.60;99.90;;;;;;5977940;24;20067;-39
2021/10/29 04:07:13;;;;;;;20.58;17.40;;;9.70;99.90;;;;;;5952229;24;20028;-39
2021/10/29 04:09:39;;;;;;;20.70;16.48;;;9.80;99.90;;;;;;5976886;24;20034;-39
2021/10/29 04:12:06;;;;;;;22.75;17.58;;;9.70;99.90;;;;;;5977469;24;20039;-39
2021/10/29 04:14:32;;;;;;;22.40;17.58;;;9.70;99.90;;;;;;5974741;24;20032;-39
2021/10/29 04:16:58;;;;;;;18.95;16.38;;;9.70;99.90;;;;;;5976958;24;20051;-39
2021/10/29 04:19:24;;;;;;;21.70;16.33;;;9.70;99.90;;;;;;5976650;24;20039;-39
2021/10/29 04:21:51;;;;;;;22.70;17.35;;;9.80;99.90;;;;;;5952191;24;20028;-39
2021/10/29 04:24:17;;;;;;;20.25;15.90;;;9.70;99.90;;;;;;5976483;24;20028;-39
2021/10/29 04:26:43;;;;;;;21.83;17.23;;;9.80;99.90;;;;;;5951472;24;20027;-39
2021/10/29 04:29:17;;;;;;;22.13;17.02;;;9.80;99.90;;;;;;5977074;24;20035;-39
2021/10/29 04:31:49;;;;;;;23.17;16.55;;;9.70;99.90;;;;;;5976448;24;20024;-39
2021/10/29 04:34:23;;;;;;;22.58;16.88;;;9.70;99.90;;;;;;5977767;24;20036;-39
2021/10/29 04:36:52;;;;;;;19.92;16.70;;;9.70;99.90;;;;;;5977206;24;20024;-39
2021/10/29 04:39:20;;;;;;;20.92;17.40;;;9.70;99.90;;;;;;5977855;24;20024;-39
2021/10/29 04:41:50;;;;;;;21.13;16.98;;;9.70;99.90;;;;;;5977440;24;20430;-39
2021/10/29 04:44:19;;;;;;;21.38;16.88;;;9.70;99.90;;;;;;5977263;24;20032;-39
2021/10/29 04:46:45;;;;;;;19.55;16.60;;;9.70;99.90;;;;;;5976529;24;20079;-39
2021/10/29 04:49:14;;;;;;;18.50;15.75;;;9.70;99.90;;;;;;5976913;24;20096;-40
2021/10/29 04:51:40;;;;;;;18.33;16.33;;;9.70;99.90;;;;;;5977263;24;20028;-39
2021/10/29 04:54:06;;;;;;;21.60;16.75;;;9.70;99.90;;;;;;5977474;24;20035;-39
2021/10/29 04:56:34;;;;;;;19.90;15.27;;;9.70;99.90;;;;;;5977040;24;20600;-39
2021/10/29 04:59:03;;;;;;;18.08;15.80;;;9.70;99.90;;;;;;5977297;24;20031;-39
2021/10/29 05:01:29;;;;;;;20.65;16.23;;;9.60;99.90;;;;;;5976502;24;20031;-39
2021/10/29 05:04:00;;;;;;;20.27;16.45;;;9.60;99.90;;;;;;5976502;24;20422;-39
2021/10/29 05:06:26;;;;;;;20.88;17.17;;;9.60;99.90;;;;;;5976641;24;20145;-39
2021/10/29 05:08:55;;;;;;;19.70;16.00;;;9.60;99.90;;;;;;5976446;24;20135;-39
2021/10/29 05:11:21;;;;;;;19.95;16.13;;;9.70;99.90;;;;;;5977054;24;20103;-40
2021/10/29 05:13:47;;;;;;;20.83;16.17;;;9.60;99.90;;;;;;5977037;24;20091;-39
2021/10/29 05:16:13;;;;;;;21.42;16.67;;;9.60;99.90;;;;;;5976935;24;20032;-40
2021/10/29 05:18:39;;;;;;;18.13;16.23;;;9.60;99.90;;;;;;5976696;24;20354;-39
2021/10/29 05:21:05;;;;;;;18.90;15.75;;;9.60;99.90;;;;;;5977258;24;20446;-39
2021/10/29 05:23:31;;;;;;;20.42;16.13;;;9.60;99.90;;;;;;5929268;24;20031;-39
2021/10/29 05:25:58;;;;;;;19.95;16.02;;;9.60;99.90;;;;;;5976487;24;20135;-40
2021/10/29 05:28:26;;;;;;;23.08;15.63;;;9.60;99.90;;;;;;5953111;24;20485;-40
2021/10/29 05:30:54;;;;;;;18.42;15.85;;;9.60;99.90;;;;;;5978400;24;20032;-39
2021/10/29 05:33:20;;;;;;;19.70;15.70;;;9.60;99.90;;;;;;5978702;24;20061;-39
2021/10/29 05:35:47;;;;;;;18.33;14.57;;;9.70;99.90;;;;;;5978751;24;20036;-38
2021/10/29 05:38:13;;;;;;;24.35;16.45;;;9.60;99.90;;;;;;5953367;24;20031;-39
2021/10/29 05:40:39;;;;;;;19.10;16.05;;;9.60;99.90;;;;;;5978159;24;20071;-39
2021/10/29 05:43:05;;;;;;;16.60;14.77;;;9.60;99.90;;;;;;5977860;24;20035;-38
2021/10/29 05:45:33;;;;;;;18.35;15.63;;;9.60;99.90;;;;;;5977609;24;20028;-45
2021/10/29 05:48:07;;;;;;;21.45;15.30;;;9.70;99.90;;;;;;5976806;24;20032;-43
2021/10/29 05:50:35;;;;;;;18.48;14.85;;;9.60;99.90;;;;;;5977965;24;20173;-44
2021/10/29 05:53:05;;;;;;;18.73;14.93;;;9.60;99.90;;;;;;5976075;24;20039;-45
2021/10/29 05:55:31;;;;;;;20.77;16.05;;;9.60;99.90;;;;;;5977037;24;20141;-44
2021/10/29 05:57:58;;;;;;;17.90;15.35;;;9.50;99.90;;;;;;5975375;24;20451;-44
2021/10/29 06:00:30;;;;;;;20.73;15.88;;;9.50;99.90;;;;;;5976160;24;20035;-46
2021/10/29 06:03:05;;;;;;;18.98;15.70;;;9.50;99.90;;;;;;5975776;24;20102;-44
2021/10/29 06:05:33;;;;;;;20.35;15.70;;;9.60;99.90;;;;;;5976419;24;20930;-46
2021/10/29 06:07:59;;;;;;;20.90;15.10;;;9.60;99.90;;;;;;5975756;24;20028;-44
2021/10/29 06:10:25;;;;;;;17.40;14.07;;;9.60;99.90;;;;;;5977132;24;20038;-44
2021/10/29 06:12:51;;;;;;;17.77;15.05;;;9.60;99.90;;;;;;5976257;24;20422;-46
2021/10/29 06:15:18;;;;;;;16.48;13.68;;;9.60;99.90;;;;;;5977245;24;20104;-46
2021/10/29 06:17:47;;;;;;;19.55;14.20;;;9.60;99.90;;;;;;5976834;24;20331;-45
2021/10/29 06:20:14;;;;;;;17.85;14.80;;;9.60;99.90;;;;;;5976646;24;20580;-44
2021/10/29 06:22:45;;;;;;;18.23;14.32;;;9.50;99.90;;;;;;5976576;24;20036;-44
2021/10/29 06:25:18;;;;;;;21.45;15.18;;;9.60;99.90;;;;;;5976018;24;20168;-45
2021/10/29 06:30:30;;;;;;;17.80;14.15;;;9.60;99.90;;;;;;5976522;24;20036;-46
2021/10/29 06:32:57;;;;;;;18.55;14.68;;;9.70;99.90;;;;;;5976052;24;20028;-45
2021/10/29 06:35:23;;;;;;;16.17;13.63;;;9.70;99.90;;;;;;5976183;24;20036;-45
2021/10/29 06:37:52;;;;;;;16.92;12.63;;;9.60;99.90;;;;;;5974756;24;20063;-44
2021/10/29 06:40:20;;;;;;;15.90;13.68;;;9.70;99.90;;;;;;5975790;24;20028;-46
2021/10/29 06:42:52;;;;;;;17.63;13.80;;;9.70;99.90;;;;;;5975990;24;20028;-45
